Time;durP1;ratioP1;P1;durP2;ratioP2;P2;SDS_P1;SDS_P2;PMS_P1;PMS_P2;Temp;Humidity;BMP_temperature;BMP_pressure;BME280_temperature;BME280_humidity;BME280_pressure;Samples;Min_cycle;Max_cycle;Signal;HPM_P1;HPM_P2
2021/10/03 00:00:00;;;;;;;5.20;4.80;;;13.90;99.90;;;;;;5024421;28;20471;-91
2021/10/03 00:02:30;;;;;;;4.60;4.20;;;13.80;99.90;;;;;;5023460;28;20463;-92
2021/10/03 00:04:58;;;;;;;4.97;4.57;;;13.80;99.90;;;;;;5021618;28;20448;-90
2021/10/03 00:07:25;;;;;;;5.40;4.60;;;;;;;;;;5019758;28;20432;-91
2021/10/03 00:09:54;;;;;;;8.27;4.87;;;13.70;99.90;;;;;;5019414;28;20849;-90
2021/10/03 00:12:23;;;;;;;4.93;4.43;;;13.60;99.90;;;;;;5020827;28;20452;-91
2021/10/03 00:14:51;;;;;;;5.50;4.10;;;13.60;99.90;;;;;;5019205;28;20568;-89
2021/10/03 00:17:18;;;;;;;7.43;4.40;;;;;;;;;;5020442;28;20484;-92
2021/10/03 00:19:45;;;;;;;5.10;4.60;;;13.50;99.90;;;;;;5017672;28;20456;-89
2021/10/03 00:22:12;;;;;;;13.40;4.77;;;;;;;;;;5018521;28;20441;-92
2021/10/03 00:24:40;;;;;;;5.80;4.67;;;;;;;;;;5018489;28;20456;-92
2021/10/03 00:27:08;;;;;;;5.20;4.30;;;13.40;99.90;;;;;;5017400;28;20448;-88
2021/10/03 00:29:36;;;;;;;6.03;4.53;;;;;;;;;;5020000;28;20452;-91
2021/10/03 00:32:04;;;;;;;6.07;4.60;;;13.30;99.90;;;;;;5017823;28;20447;-89
2021/10/03 00:34:31;;;;;;;6.17;4.97;;;;;;;;;;5016571;28;20495;-90
2021/10/03 00:36:58;;;;;;;5.17;4.40;;;;;;;;;;5017945;28;20511;-90
2021/10/03 00:39:25;;;;;;;4.80;4.30;;;;;;;;;;5018472;28;20464;-90
2021/10/03 00:41:53;;;;;;;5.60;4.83;;;;;;;;;;5018246;28;20456;-90
2021/10/03 00:44:22;;;;;;;4.77;4.10;;;13.80;99.90;;;;;;5017965;28;20459;-90
2021/10/03 00:46:49;;;;;;;6.10;5.07;;;;;;;;;;5018633;28;20799;-92
2021/10/03 00:49:16;;;;;;;5.53;4.50;;;;;;;;;;5016776;28;20495;-90
2021/10/03 00:51:43;;;;;;;5.00;4.17;;;;;;;;;;5019201;28;20963;-90
2021/10/03 00:54:10;;;;;;;4.90;4.40;;;;;;;;;;5019994;28;20452;-89
2021/10/03 00:56:38;;;;;;;5.20;4.70;;;;;;;;;;5023065;28;20503;-90
2021/10/03 00:59:05;;;;;;;4.07;3.67;;;;;;;;;;5019554;28;20444;-90
2021/10/03 01:01:36;;;;;;;5.70;4.60;;;;;;;;;;5019559;28;20457;-92
2021/10/03 01:04:03;;;;;;;5.70;4.40;;;;;;;;;;5020206;28;21063;-89
2021/10/03 01:06:30;;;;;;;4.93;4.07;;;;;;;;;;5027275;28;20448;-90
2021/10/03 01:08:57;;;;;;;4.50;4.03;;;;;;;;;;5021480;28;20461;-92
2021/10/03 01:11:24;;;;;;;4.40;4.00;;;;;;;;;;5018133;28;20951;-92
2021/10/03 01:13:52;;;;;;;6.47;4.50;;;;;;;;;;5017253;28;20928;-91
2021/10/03 01:16:19;;;;;;;6.33;4.37;;;;;;;;;;5016783;28;21030;-90
2021/10/03 01:18:47;;;;;;;4.60;4.13;;;14.00;99.90;;;;;;5018275;28;20461;-90
2021/10/03 01:21:15;;;;;;;5.13;4.63;;;14.00;99.90;;;;;;5017696;28;20448;-93
2021/10/03 01:23:43;;;;;;;6.60;4.33;;;13.80;99.90;;;;;;5019130;28;20460;-90
2021/10/03 01:26:11;;;;;;;8.67;5.43;;;;;;;;;;5016759;28;20494;-91
2021/10/03 01:28:38;;;;;;;5.07;4.43;;;;;;;;;;5018578;28;20463;-91
2021/10/03 01:31:09;;;;;;;8.33;4.87;;;;;;;;;;5018265;28;20456;-91
2021/10/03 01:33:37;;;;;;;4.90;4.30;;;13.80;99.90;;;;;;5018029;28;20456;-90
2021/10/03 01:36:06;;;;;;;5.10;4.60;;;13.90;99.90;;;;;;5017788;28;20444;-93
2021/10/03 01:38:34;;;;;;;5.43;4.07;;;14.00;99.90;;;;;;5018357;28;20448;-89
2021/10/03 01:41:01;;;;;;;5.33;4.73;;;;;;;;;;5015946;28;20452;-90
2021/10/03 01:43:28;;;;;;;4.97;4.47;;;;;;;;;;5018364;28;20452;-88
2021/10/03 01:45:56;;;;;;;4.43;4.03;;;;;;;;;;5019497;28;20444;-89
2021/10/03 01:48:24;;;;;;;5.67;4.30;;;14.50;99.90;;;;;;5019608;28;20448;-89
2021/10/03 01:50:53;;;;;;;5.40;4.10;;;14.50;99.90;;;;;;5019904;28;20455;-90
2021/10/03 01:53:23;;;;;;;5.40;4.67;;;14.70;99.90;;;;;;5027680;28;20439;-89
2021/10/03 01:55:52;;;;;;;4.73;4.30;;;14.80;99.90;;;;;;5036355;28;20435;-90
2021/10/03 01:58:21;;;;;;;5.77;4.50;;;15.00;99.90;;;;;;5024909;28;20476;-90
2021/10/03 02:00:52;;;;;;;4.63;4.17;;;15.00;99.90;;;;;;5019275;28;20459;-91
2021/10/03 02:03:19;;;;;;;4.60;4.10;;;;;;;;;;5011499;28;20448;-89
2021/10/03 02:05:48;;;;;;;6.87;4.33;;;15.00;99.90;;;;;;5018072;28;20452;-92
2021/10/03 02:08:17;;;;;;;4.77;3.90;;;15.00;99.90;;;;;;5017828;28;20819;-90
2021/10/03 02:10:46;;;;;;;4.43;4.00;;;14.90;99.90;;;;;;5017889;28;20448;-90
2021/10/03 02:13:15;;;;;;;4.80;4.37;;;14.80;99.90;;;;;;5017853;28;20447;-88
2021/10/03 02:15:45;;;;;;;4.13;3.73;;;14.90;99.90;;;;;;5018993;28;20444;-90
2021/10/03 02:18:14;;;;;;;5.83;3.70;;;15.00;99.90;;;;;;5018429;28;20598;-90
2021/10/03 02:20:42;;;;;;;4.50;3.70;;;15.10;99.90;;;;;;5019772;28;20447;-88
2021/10/03 02:23:13;;;;;;;5.03;3.90;;;15.20;99.90;;;;;;5019701;28;20932;-90
2021/10/03 02:25:43;;;;;;;4.80;3.70;;;;;;;;;;5019050;28;20928;-90
2021/10/03 02:28:11;;;;;;;3.90;3.60;;;;;;;;;;5022785;28;20506;-89
2021/10/03 02:30:40;;;;;;;4.17;3.77;;;15.10;99.90;;;;;;5023229;28;20447;-89
2021/10/03 02:33:07;;;;;;;4.80;3.93;;;;;;;;;;5022392;28;20456;-89
2021/10/03 02:35:38;;;;;;;3.93;3.53;;;;;;;;;;5030939;28;20472;-89
2021/10/03 02:38:05;;;;;;;4.37;3.83;;;;;;;;;;5023319;28;20586;-91
2021/10/03 02:40:32;;;;;;;5.40;3.83;;;;;;;;;;5021940;28;20444;-91
2021/10/03 02:43:00;;;;;;;9.13;4.53;;;;;;;;;;5020934;28;20448;-91
2021/10/03 02:45:29;;;;;;;4.80;4.30;;;;;;;;;;5020700;28;20459;-90
2021/10/03 02:47:58;;;;;;;4.10;3.70;;;14.70;99.90;;;;;;5021340;28;20452;-91
2021/10/03 02:50:25;;;;;;;4.00;3.60;;;;;;;;;;4951017;28;20453;-93
2021/10/03 02:52:52;;;;;;;4.00;3.60;;;;;;;;;;5000840;28;20461;-90
2021/10/03 02:55:19;;;;;;;4.00;3.70;;;;;;;;;;4998100;28;20557;-92
2021/10/03 02:57:47;;;;;;;5.17;3.70;;;;;;;;;;4999979;28;20477;-91
2021/10/03 03:00:14;;;;;;;3.70;3.40;;;;;;;;;;4998981;28;20548;-90
2021/10/03 03:02:41;;;;;;;4.30;3.60;;;;;;;;;;4999047;28;20821;-90
2021/10/03 03:05:10;;;;;;;4.80;3.77;;;14.80;99.90;;;;;;4994885;28;20464;-90
2021/10/03 03:07:38;;;;;;;4.80;3.87;;;;;;;;;;5001884;28;20480;-91
2021/10/03 03:10:07;;;;;;;4.00;3.60;;;14.70;99.90;;;;;;5020721;28;20959;-90
2021/10/03 03:12:35;;;;;;;6.10;3.50;;;;;;;;;;5024197;28;20460;-90
2021/10/03 03:15:02;;;;;;;3.70;3.40;;;;;;;;;;5024781;28;20514;-92
2021/10/03 03:17:29;;;;;;;4.63;2.83;;;;;;;;;;5022306;28;20488;-90
2021/10/03 03:19:56;;;;;;;5.33;3.60;;;;;;;;;;5021703;28;20448;-90
2021/10/03 03:22:25;;;;;;;3.80;3.40;;;14.50;99.90;;;;;;5022420;28;20440;-89
2021/10/03 03:24:53;;;;;;;5.97;3.80;;;;;;;;;;5021474;28;21001;-91
2021/10/03 03:27:20;;;;;;;3.93;3.53;;;;;;;;;;5022048;28;20452;-90
2021/10/03 03:29:47;;;;;;;4.40;4.00;;;;;;;;;;5021496;28;20456;-93
2021/10/03 03:32:14;;;;;;;3.20;2.90;;;;;;;;;;5020606;28;20452;-89
2021/10/03 03:34:41;;;;;;;3.77;3.47;;;;;;;;;;5019199;28;20475;-89
2021/10/03 03:37:09;;;;;;;4.40;3.50;;;;;;;;;;5018100;28;20503;-89
2021/10/03 03:39:37;;;;;;;4.73;4.00;;;14.30;99.90;;;;;;5018535;28;20445;-92
2021/10/03 03:42:04;;;;;;;3.50;3.20;;;14.30;99.90;;;;;;5019922;28;20947;-90
2021/10/03 03:44:32;;;;;;;3.90;3.23;;;14.20;99.90;;;;;;5018245;28;20510;-90
2021/10/03 03:47:00;;;;;;;5.73;3.40;;;;;;;;;;5019850;28;20444;-91
2021/10/03 03:49:27;;;;;;;4.03;3.67;;;;;;;;;;5019683;28;20448;-91
2021/10/03 03:51:54;;;;;;;3.40;3.10;;;;;;;;;;5020715;28;20460;-91
2021/10/03 03:54:21;;;;;;;4.10;3.70;;;;;;;;;;5020119;28;20455;-90
2021/10/03 03:56:49;;;;;;;3.97;3.50;;;14.20;99.90;;;;;;5021260;28;20445;-92
2021/10/03 03:59:16;;;;;;;4.73;3.20;;;;;;;;;;5019721;28;20448;-89
2021/10/03 04:01:43;;;;;;;3.67;3.37;;;;;;;;;;5021086;28;20455;-89
2021/10/03 04:04:11;;;;;;;3.87;3.30;;;;;;;;;;5028826;28;20425;-89
2021/10/03 04:06:38;;;;;;;5.67;3.50;;;;;;;;;;5023783;28;20467;-91
2021/10/03 04:09:06;;;;;;;3.33;3.03;;;;;;;;;;5018692;28;20791;-92
2021/10/03 04:11:33;;;;;;;4.07;3.50;;;;;;;;;;5020089;28;20483;-90
2021/10/03 04:14:02;;;;;;;3.27;2.97;;;13.90;99.90;;;;;;5019771;28;20448;-90
2021/10/03 04:16:29;;;;;;;3.20;2.90;;;;;;;;;;5019834;28;20787;-89
2021/10/03 04:18:56;;;;;;;3.67;2.63;;;;;;;;;;5018353;28;20487;-90
2021/10/03 04:21:23;;;;;;;7.93;3.20;;;;;;;;;;5019269;28;20455;-90
2021/10/03 04:23:50;;;;;;;3.80;3.20;;;;;;;;;;5020363;28;20452;-90
2021/10/03 04:26:17;;;;;;;4.67;3.23;;;;;;;;;;5019920;28;20923;-92
2021/10/03 04:28:45;;;;;;;3.30;3.00;;;;;;;;;;5019582;28;20448;-90
2021/10/03 04:31:13;;;;;;;3.43;3.13;;;13.80;99.90;;;;;;5022304;28;20448;-90
2021/10/03 04:33:42;;;;;;;3.67;3.13;;;;;;;;;;5023520;28;20452;-89
2021/10/03 04:36:09;;;;;;;3.43;3.13;;;13.60;99.90;;;;;;5022348;28;20445;-90
2021/10/03 04:38:37;;;;;;;3.70;3.30;;;;;;;;;;5022684;28;20507;-90
2021/10/03 04:41:04;;;;;;;3.70;3.40;;;;;;;;;;5036965;28;20432;-90
2021/10/03 04:43:31;;;;;;;3.60;2.93;;;13.90;99.90;;;;;;5039615;28;20445;-91
2021/10/03 04:45:58;;;;;;;3.70;3.40;;;;;;;;;;5021098;28;20459;-89
2021/10/03 04:48:27;;;;;;;3.47;3.17;;;13.60;99.90;;;;;;5020577;28;20453;-92
2021/10/03 04:50:54;;;;;;;4.93;2.80;;;;;;;;;;5016393;28;20448;-92
2021/10/03 04:53:21;;;;;;;3.33;3.03;;;;;;;;;;5018418;28;20456;-91
2021/10/03 04:55:48;;;;;;;3.33;2.90;;;;;;;;;;5018357;28;20452;-90
2021/10/03 04:58:15;;;;;;;3.20;2.80;;;;;;;;;;5017541;28;20511;-89
2021/10/03 05:00:43;;;;;;;5.17;3.33;;;;;;;;;;5019402;28;20436;-90
2021/10/03 05:03:10;;;;;;;3.53;2.87;;;;;;;;;;5019689;28;20475;-89
2021/10/03 05:05:38;;;;;;;3.40;3.00;;;14.20;99.90;;;;;;5017669;28;20460;-91
2021/10/03 05:08:05;;;;;;;4.27;3.23;;;;;;;;;;5019103;28;20464;-93
2021/10/03 05:10:33;;;;;;;4.23;3.13;;;;;;;;;;5020197;28;20448;-90
2021/10/03 05:13:00;;;;;;;3.17;2.83;;;;;;;;;;5019333;28;20944;-90
2021/10/03 05:15:27;;;;;;;3.20;2.90;;;;;;;;;;5019941;28;20800;-89
2021/10/03 05:17:54;;;;;;;6.03;2.93;;;;;;;;;;5019919;28;20494;-90
2021/10/03 05:20:21;;;;;;;2.90;2.40;;;;;;;;;;5019152;28;20468;-91
2021/10/03 05:22:49;;;;;;;3.43;2.93;;;14.70;99.90;;;;;;5020088;28;20475;-89
2021/10/03 05:25:17;;;;;;;3.30;2.50;;;;;;;;;;5020341;28;20459;-89
2021/10/03 05:27:44;;;;;;;2.80;2.40;;;;;;;;;;5022580;28;20441;-90
2021/10/03 05:30:11;;;;;;;3.10;2.80;;;;;;;;;;5023383;28;20513;-89
2021/10/03 05:32:38;;;;;;;3.60;3.30;;;;;;;;;;5027252;28;20448;-88
2021/10/03 05:35:06;;;;;;;4.90;2.50;;;15.10;99.90;;;;;;5021670;28;20472;-91
2021/10/03 05:37:33;;;;;;;2.60;2.40;;;;;;;;;;5019152;28;20491;-89
2021/10/03 05:40:01;;;;;;;4.03;3.63;;;15.30;99.90;;;;;;5020630;28;20453;-91
2021/10/03 05:42:29;;;;;;;3.00;2.70;;;;;;;;;;5019121;28;20449;-92
2021/10/03 05:44:56;;;;;;;4.00;2.80;;;;;;;;;;5031737;28;20439;-92
2021/10/03 05:47:23;;;;;;;3.83;3.10;;;;;;;;;;5029540;28;20816;-92
2021/10/03 05:49:50;;;;;;;3.23;2.93;;;;;;;;;;5028343;28;20443;-89
2021/10/03 05:52:18;;;;;;;16.67;11.10;;;;;;;;;;5025337;28;20449;-89
2021/10/03 05:54:45;;;;;;;10.40;8.53;;;;;;;;;;5019230;28;20803;-90
2021/10/03 05:57:13;;;;;;;5.90;5.30;;;15.30;99.90;;;;;;5019259;28;20563;-90
2021/10/03 05:59:40;;;;;;;3.43;2.90;;;;;;;;;;4982417;28;20454;-89
2021/10/03 06:02:08;;;;;;;3.30;3.00;;;;;;;;;;4982472;28;20814;-90
2021/10/03 06:04:35;;;;;;;3.87;3.40;;;;;;;;;;4976959;28;20484;-91
2021/10/03 06:07:02;;;;;;;5.23;4.73;;;;;;;;;;4979779;28;20478;-90
2021/10/03 06:09:29;;;;;;;3.67;3.37;;;;;;;;;;4976104;28;20453;-89
2021/10/03 06:11:56;;;;;;;4.37;4.07;;;;;;;;;;4977932;28;20446;-90
2021/10/03 06:14:25;;;;;;;3.87;3.47;;;;;;;;;;4977400;28;20446;-89
2021/10/03 06:16:52;;;;;;;3.20;2.33;;;;;;;;;;4981933;28;21048;-89
2021/10/03 06:19:19;;;;;;;3.83;2.50;;;;;;;;;;5016945;28;20852;-88
2021/10/03 06:21:46;;;;;;;2.80;2.37;;;;;;;;;;5017314;28;20452;-91
2021/10/03 06:24:17;;;;;;;2.30;2.10;;;;;;;;;;5013980;28;20445;-89
2021/10/03 06:26:47;;;;;;;2.57;2.37;;;;;;;;;;5014141;28;21015;-90
2021/10/03 06:29:14;;;;;;;2.60;1.83;;;;;;;;;;5022001;28;20444;-90
2021/10/03 06:31:45;;;;;;;10.97;9.80;;;;;;;;;;5018385;28;20448;-87
2021/10/03 06:34:12;;;;;;;6.57;5.97;;;;;;;;;;5011022;28;20479;-89
2021/10/03 06:36:39;;;;;;;3.43;3.00;;;;;;;;;;5014709;28;20812;-90
2021/10/03 06:39:07;;;;;;;4.40;4.00;;;;;;;;;;5024786;28;20480;-90
2021/10/03 06:41:34;;;;;;;5.80;4.87;;;;;;;;;;5024734;28;20448;-88
2021/10/03 06:44:02;;;;;;;3.60;3.30;;;16.60;99.90;;;;;;5022345;28;20457;-89
2021/10/03 06:46:29;;;;;;;2.60;2.40;;;;;;;;;;5014642;28;20955;-90
2021/10/03 06:48:58;;;;;;;3.00;1.90;;;;;;;;;;5013774;28;20913;-91
2021/10/03 06:51:26;;;;;;;3.23;2.50;;;;;;;;;;5012921;28;20459;-90
2021/10/03 06:53:53;;;;;;;3.00;2.70;;;;;;;;;;5015488;28;20440;-88
2021/10/03 06:56:20;;;;;;;4.13;3.07;;;;;;;;;;5014604;28;20494;-89
2021/10/03 06:58:47;;;;;;;2.70;2.00;;;;;;;;;;5029366;28;20488;-88
2021/10/03 07:01:15;;;;;;;2.40;2.20;;;;;;;;;;5034053;28;20478;-88
2021/10/03 07:03:42;;;;;;;2.10;1.90;;;;;;;;;;5023843;28;20452;-90
2021/10/03 07:06:11;;;;;;;2.30;2.10;;;17.10;99.90;;;;;;5017417;28;20835;-93
2021/10/03 07:08:38;;;;;;;6.10;2.70;;;;;;;;;;5034480;28;20444;-93
2021/10/03 07:11:06;;;;;;;4.03;2.03;;;;;;;;;;5033608;28;20454;-91
2021/10/03 07:13:33;;;;;;;3.30;2.30;;;;;;;;;;5036804;28;20458;-91
2021/10/03 07:16:00;;;;;;;4.90;2.57;;;;;;;;;;5031928;28;20445;-91
2021/10/03 07:18:27;;;;;;;2.70;2.40;;;;;;;;;;5019764;28;20483;-90
2021/10/03 07:20:54;;;;;;;3.40;2.40;;;;;;;;;;5027661;28;20846;-91
2021/10/03 07:23:26;;;;;;;2.60;2.40;;;16.90;99.90;;;;;;5030352;28;20445;-92
2021/10/03 07:25:59;;;;;;;2.43;2.03;;;17.00;99.90;;;;;;5022238;28;20448;-91
2021/10/03 07:28:26;;;;;;;2.30;2.10;;;;;;;;;;5015973;28;20447;-94
2021/10/03 07:30:54;;;;;;;2.97;2.40;;;;;;;;;;5017208;28;20441;-93
2021/10/03 07:33:22;;;;;;;2.70;2.50;;;;;;;;;;5001077;28;20437;-92
2021/10/03 07:35:49;;;;;;;2.60;2.30;;;;;;;;;;5016626;28;20883;-93
2021/10/03 07:38:17;;;;;;;6.63;2.33;;;;;;;;;;5017924;28;20842;-93
2021/10/03 07:40:45;;;;;;;2.23;2.03;;;17.20;99.90;;;;;;5019061;28;20860;-91
2021/10/03 07:43:13;;;;;;;2.20;2.00;;;;;;;;;;5021176;28;20445;-94
2021/10/03 07:45:40;;;;;;;3.20;2.67;;;;;;;;;;5035590;28;20447;-90
2021/10/03 07:48:07;;;;;;;4.70;2.23;;;;;;;;;;5029537;28;20448;-91
2021/10/03 07:50:34;;;;;;;2.20;2.00;;;;;;;;;;5020272;28;20437;-90
2021/10/03 07:53:02;;;;;;;3.53;2.43;;;;;;;;;;5025199;28;20449;-91
2021/10/03 07:55:29;;;;;;;2.70;2.50;;;;;;;;;;5021813;28;20451;-89
2021/10/03 07:58:03;;;;;;;2.90;2.40;;;17.70;99.90;;;;;;5022141;28;20452;-91
2021/10/03 08:00:30;;;;;;;2.43;2.23;;;;;;;;;;5020186;28;20463;-94
2021/10/03 08:02:57;;;;;;;15.00;6.10;;;;;;;;;;5020933;28;20443;-93
2021/10/03 08:05:24;;;;;;;11.80;5.67;;;;;;;;;;5023785;28;20979;-94
2021/10/03 08:07:52;;;;;;;9.50;5.40;;;;;;;;;;5020634;28;20512;-94
2021/10/03 08:10:19;;;;;;;2.17;1.97;;;;;;;;;;5018504;28;20440;-94
2021/10/03 08:12:47;;;;;;;4.03;2.50;;;;;;;;;;5018333;28;20440;-93
2021/10/03 08:15:16;;;;;;;2.43;2.17;;;18.40;99.90;;;;;;5017072;28;20444;-93
2021/10/03 08:17:43;;;;;;;2.80;2.60;;;;;;;;;;5016550;28;20448;-94
2021/10/03 08:20:10;;;;;;;2.17;1.97;;;;;;;;;;5020558;28;20484;-94
2021/10/03 08:22:38;;;;;;;7.47;4.60;;;;;;;;;;5023455;28;20452;-94
2021/10/03 08:25:07;;;;;;;5.73;2.70;;;;;;;;;;5022580;28;20452;-94
2021/10/03 08:27:42;;;;;;;2.23;2.03;;;;;;;;;;5022007;28;20512;-95
2021/10/03 08:30:10;;;;;;;11.90;10.10;;;18.60;99.90;;;;;;5034997;28;20419;-87
2021/10/03 08:32:38;;;;;;;6.40;5.27;;;18.50;99.90;;;;;;5032565;28;20451;-96
2021/10/03 08:35:10;;;;;;;5.57;5.07;;;18.50;99.90;;;;;;5026815;28;20483;-94
2021/10/03 08:37:37;;;;;;;4.80;4.40;;;;;;;;;;5027113;28;20441;-94
2021/10/03 08:40:06;;;;;;;3.93;3.10;;;18.50;99.90;;;;;;5025702;28;20490;-93
2021/10/03 08:42:33;;;;;;;2.20;2.00;;;;;;;;;;5024680;28;20451;-92
2021/10/03 08:45:01;;;;;;;2.60;2.40;;;;;;;;;;5022178;28;20459;-95
2021/10/03 08:47:28;;;;;;;3.07;2.77;;;;;;;;;;5020949;28;20451;-95
2021/10/03 08:49:57;;;;;;;2.87;1.87;;;;;;;;;;5024796;28;20449;-90
2021/10/03 08:52:25;;;;;;;2.83;2.37;;;;;;;;;;5024090;28;20441;-96
2021/10/03 08:54:52;;;;;;;3.17;2.57;;;;;;;;;;5021551;28;20448;-95
2021/10/03 08:57:20;;;;;;;3.00;2.70;;;;;;;;;;5021172;28;20447;-93
2021/10/03 09:00:06;;;;;;;2.60;2.30;;;18.90;99.90;;;;;;5016953;28;20488;-94
2021/10/03 09:02:52;;;;;;;2.50;2.23;;;18.60;99.90;;;;;;5017283;28;20920;-95
2021/10/03 09:05:23;;;;;;;2.83;2.50;;;18.60;99.90;;;;;;5016437;28;20460;-93
2021/10/03 09:07:58;;;;;;;2.97;2.67;;;;;;;;;;5018910;28;20506;-93
2021/10/03 09:10:26;;;;;;;4.23;2.63;;;;;;;;;;5004032;28;20445;-94
2021/10/03 09:15:38;;;;;;;5.80;2.50;;;;;;;;;;5006234;28;20449;-92
2021/10/03 09:18:07;;;;;;;3.63;2.43;;;18.80;99.90;;;;;;5003378;28;20457;-92
2021/10/03 09:23:27;;;;;;;5.10;2.20;;;;;;;;;;5070615;22;20472;-93
2021/10/03 09:25:55;;;;;;;4.33;2.60;;;18.80;99.90;;;;;;5109451;28;20429;-93
2021/10/03 09:28:30;;;;;;;6.97;2.50;;;18.70;99.90;;;;;;5096326;28;20448;-93
2021/10/03 09:31:00;;;;;;;2.63;2.43;;;18.80;99.90;;;;;;5095086;28;20540;-92
2021/10/03 09:33:42;;;;;;;6.40;2.20;;;18.90;99.90;;;;;;5098118;28;20482;-93
2021/10/03 09:36:11;;;;;;;3.00;2.27;;;19.20;99.90;;;;;;5098959;28;20443;-92
2021/10/03 09:38:54;;;;;;;2.80;2.50;;;19.30;99.90;;;;;;5105163;28;20432;-91
2021/10/03 09:41:24;;;;;;;2.87;2.67;;;19.40;99.90;;;;;;5079854;22;20486;-93
2021/10/03 09:43:55;;;;;;;3.80;2.47;;;19.40;99.90;;;;;;5072377;28;20443;-93
2021/10/03 09:46:41;;;;;;;2.77;2.57;;;19.30;99.90;;;;;;5065097;28;20434;-92
2021/10/03 09:49:11;;;;;;;3.20;2.77;;;19.30;99.90;;;;;;5062170;28;20441;-92
2021/10/03 09:51:41;;;;;;;4.07;2.87;;;19.20;99.90;;;;;;5066581;28;20427;-92
2021/10/03 09:54:10;;;;;;;3.70;2.70;;;19.00;99.90;;;;;;5071449;22;20486;-92
2021/10/03 09:56:37;;;;;;;2.30;2.13;;;;;;;;;;5058697;28;20450;-93
2021/10/03 09:59:06;;;;;;;2.83;2.20;;;19.00;99.90;;;;;;5078148;22;20474;-92
2021/10/03 10:01:34;;;;;;;2.30;2.10;;;19.00;99.90;;;;;;5068862;28;20427;-93
2021/10/03 10:04:08;;;;;;;3.27;2.97;;;18.90;99.90;;;;;;5076830;22;20482;-92
2021/10/03 10:06:38;;;;;;;2.57;2.37;;;;;;;;;;5073137;22;20494;-92
2021/10/03 10:09:09;;;;;;;2.90;2.50;;;19.10;99.90;;;;;;5066102;22;20490;-93
2021/10/03 10:11:41;;;;;;;2.40;2.20;;;19.00;99.90;;;;;;5053123;28;20431;-93
2021/10/03 10:14:09;;;;;;;2.60;2.40;;;19.50;99.90;;;;;;5057048;28;20449;-94
2021/10/03 10:16:43;;;;;;;2.30;2.10;;;19.70;99.90;;;;;;5058440;28;20454;-92
2021/10/03 10:19:33;;;;;;;3.20;2.70;;;19.80;99.90;;;;;;5062839;28;20478;-91
2021/10/03 10:22:29;;;;;;;2.50;2.30;;;19.90;99.90;;;;;;5062731;28;20493;-92
2021/10/03 10:25:00;;;;;;;2.60;2.40;;;20.00;99.90;;;;;;5061446;28;20450;-90
2021/10/03 10:28:06;;;;;;;2.70;2.50;;;19.90;99.90;;;;;;5057466;28;20453;-90
2021/10/03 10:30:34;;;;;;;2.50;2.30;;;19.90;99.90;;;;;;5057354;28;20469;-91
2021/10/03 10:33:16;;;;;;;3.27;2.47;;;19.80;99.90;;;;;;5048328;28;20451;-92
2021/10/03 10:35:45;;;;;;;2.80;1.93;;;20.00;99.90;;;;;;5045582;28;20511;-90
2021/10/03 10:38:30;;;;;;;3.07;2.10;;;;;;;;;;5043381;28;20475;-90
2021/10/03 10:41:00;;;;;;;4.57;2.47;;;;;;;;;;5044737;28;20503;-90
2021/10/03 10:43:49;;;;;;;3.27;2.50;;;;;;;;;;5046469;28;20443;-90
2021/10/03 10:46:47;;;;;;;4.03;2.60;;;20.10;99.90;;;;;;5048524;28;20435;-88
2021/10/03 10:49:37;;;;;;;2.70;2.20;;;20.00;99.90;;;;;;5050210;28;20454;-94
2021/10/03 10:52:36;;;;;;;3.33;2.60;;;19.90;99.90;;;;;;5051051;28;20439;-90
2021/10/03 10:55:25;;;;;;;2.40;2.20;;;20.00;99.90;;;;;;5048253;28;20451;-87
2021/10/03 10:58:12;;;;;;;3.37;2.50;;;19.90;99.90;;;;;;5045211;28;20954;-87
2021/10/03 11:00:58;;;;;;;2.47;2.27;;;;;;;;;;5043651;28;20487;-93
2021/10/03 11:03:59;;;;;;;3.07;2.10;;;20.00;99.90;;;;;;5053387;28;20439;-89
2021/10/03 11:07:05;;;;;;;2.07;1.87;;;20.00;99.90;;;;;;5048268;28;20447;-88
2021/10/03 11:10:06;;;;;;;3.57;2.77;;;19.80;99.90;;;;;;5058047;28;20438;-90
2021/10/03 11:12:36;;;;;;;3.50;2.23;;;;;;;;;;5050275;28;20443;-90
2021/10/03 11:15:34;;;;;;;3.47;2.43;;;20.10;99.90;;;;;;5049011;28;20439;-90
2021/10/03 11:18:07;;;;;;;4.53;2.40;;;20.00;99.90;;;;;;5049813;28;20946;-91
2021/10/03 11:20:57;;;;;;;3.40;2.67;;;;;;;;;;5050374;28;20478;-91
2021/10/03 11:23:25;;;;;;;2.77;2.43;;;;;;;;;;5046006;28;20444;-89
2021/10/03 11:26:08;;;;;;;2.37;2.17;;;20.00;99.90;;;;;;5053962;28;20985;-88
2021/10/03 11:28:55;;;;;;;2.37;2.17;;;;;;;;;;5048614;28;20860;-88
2021/10/03 11:31:45;;;;;;;4.13;3.03;;;20.10;99.90;;;;;;5051068;28;20489;-89
2021/10/03 11:34:28;;;;;;;2.53;2.33;;;20.10;99.90;;;;;;5046452;28;20444;-88
2021/10/03 11:36:56;;;;;;;3.23;2.80;;;;;;;;;;5045152;28;20434;-89
2021/10/03 11:39:37;;;;;;;2.80;2.50;;;;;;;;;;5051418;28;20485;-90
2021/10/03 11:42:18;;;;;;;3.43;2.63;;;20.30;99.90;;;;;;5046944;28;20865;-89
2021/10/03 11:44:47;;;;;;;2.97;2.60;;;;;;;;;;5047917;28;20439;-89
2021/10/03 11:47:27;;;;;;;3.40;3.10;;;20.40;99.90;;;;;;5051148;28;20970;-91
2021/10/03 11:49:55;;;;;;;2.53;2.33;;;;;;;;;;5041752;28;20812;-91
2021/10/03 11:52:31;;;;;;;4.70;2.73;;;20.60;99.90;;;;;;5047469;28;20446;-89
2021/10/03 11:55:09;;;;;;;4.90;2.60;;;;;;;;;;5048277;28;20453;-93
2021/10/03 11:57:43;;;;;;;3.40;2.60;;;;;;;;;;5049798;28;20431;-92
2021/10/03 12:00:19;;;;;;;2.30;2.10;;;;;;;;;;5042175;28;20540;-92
2021/10/03 12:02:50;;;;;;;2.73;2.53;;;;;;;;;;5045108;28;20454;-91
2021/10/03 12:05:22;;;;;;;3.03;2.73;;;21.40;99.90;;;;;;5045497;28;20466;-92
2021/10/03 12:08:00;;;;;;;3.17;2.80;;;;;;;;;;5061143;28;20489;-94
2021/10/03 12:10:39;;;;;;;2.63;2.23;;;21.10;99.90;;;;;;5051754;28;20442;-94
2021/10/03 12:13:16;;;;;;;3.20;2.90;;;20.90;99.90;;;;;;5028349;28;20440;-91
2021/10/03 12:15:49;;;;;;;2.70;2.50;;;21.10;99.90;;;;;;5024094;28;20460;-93
2021/10/03 12:18:43;;;;;;;3.23;2.90;;;21.30;99.90;;;;;;5021218;28;20526;-92
2021/10/03 12:21:12;;;;;;;2.60;2.40;;;22.20;99.90;;;;;;5035100;28;20527;-88
2021/10/03 12:23:52;;;;;;;2.80;2.60;;;22.30;99.90;;;;;;5021382;28;20456;-93
2021/10/03 12:26:21;;;;;;;3.40;2.60;;;21.90;99.90;;;;;;5020964;28;20440;-93
2021/10/03 12:29:09;;;;;;;3.07;2.80;;;21.60;99.90;;;;;;5020048;28;20432;-94
2021/10/03 12:31:52;;;;;;;2.53;2.30;;;21.70;99.90;;;;;;5019118;28;20495;-92
2021/10/03 12:34:49;;;;;;;3.27;2.50;;;21.70;99.90;;;;;;5017763;28;20520;-92
2021/10/03 12:37:18;;;;;;;2.83;2.20;;;21.60;99.90;;;;;;5017236;28;20444;-92
2021/10/03 12:39:51;;;;;;;2.30;2.03;;;21.70;99.90;;;;;;5018871;28;20479;-94
2021/10/03 12:42:20;;;;;;;2.53;2.30;;;21.80;99.90;;;;;;5017076;28;20457;-93
2021/10/03 12:44:50;;;;;;;2.40;2.20;;;22.10;99.90;;;;;;5017280;28;20475;-92
2021/10/03 12:47:18;;;;;;;2.50;2.30;;;;;;;;;;5018415;28;20444;-91
2021/10/03 12:49:45;;;;;;;2.60;2.40;;;22.10;99.90;;;;;;5019729;28;20475;-92
2021/10/03 12:52:14;;;;;;;2.83;2.63;;;22.10;99.90;;;;;;5019095;28;20448;-91
2021/10/03 12:54:42;;;;;;;2.60;2.40;;;;;;;;;;5020488;28;20528;-90
2021/10/03 12:57:09;;;;;;;2.60;2.37;;;;;;;;;;5027977;28;20409;-89
2021/10/03 12:59:36;;;;;;;2.90;2.20;;;;;;;;;;5034711;28;20463;-92
2021/10/03 13:02:05;;;;;;;2.73;2.53;;;21.60;99.90;;;;;;5021891;28;20449;-90
2021/10/03 13:04:32;;;;;;;2.87;2.20;;;;;;;;;;5034231;28;20479;-90
2021/10/03 13:07:01;;;;;;;2.60;2.40;;;21.70;99.90;;;;;;5020761;28;20448;-88
2021/10/03 13:09:46;;;;;;;5.43;3.67;;;21.60;99.90;;;;;;5059388;22;20856;-90
2021/10/03 13:12:15;;;;;;;2.90;2.60;;;;;;;;;;5047217;28;20459;-91
2021/10/03 13:14:50;;;;;;;2.37;2.17;;;;;;;;;;5072084;22;20524;-89
2021/10/03 13:17:36;;;;;;;2.47;2.27;;;20.80;99.90;;;;;;5082932;22;20499;-90
2021/10/03 13:20:21;;;;;;;2.60;2.40;;;;;;;;;;5084831;22;20478;-92
2021/10/03 13:22:50;;;;;;;2.47;2.27;;;;;;;;;;5078217;22;20500;-92
2021/10/03 13:25:34;;;;;;;2.60;2.40;;;;;;;;;;5085116;22;20431;-89
2021/10/03 13:28:11;;;;;;;2.67;2.43;;;;;;;;;;5080009;22;20486;-90
2021/10/03 13:30:45;;;;;;;7.60;4.27;;;;;;;;;;5088448;22;20473;-89
2021/10/03 13:33:15;;;;;;;3.30;2.60;;;21.20;99.90;;;;;;5091666;22;20498;-91
2021/10/03 13:36:05;;;;;;;4.80;2.97;;;21.10;99.90;;;;;;5088860;22;20494;-91
2021/10/03 13:38:33;;;;;;;9.00;4.10;;;;;;;;;;5095112;22;20490;-90
2021/10/03 13:43:48;;;;;;;8.53;3.73;;;;;;;;;;5118131;22;20529;-90
2021/10/03 13:46:22;;;;;;;3.50;2.83;;;;;;;;;;5192176;22;20988;-90
2021/10/03 13:48:59;;;;;;;8.27;3.27;;;;;;;;;;5174770;22;20486;-90
2021/10/03 13:53:56;;;;;;;3.30;2.83;;;;;;;;;;5174256;22;20525;-89
2021/10/03 13:58:50;;;;;;;8.63;4.53;;;;;;;;;;5131522;22;20489;-91
2021/10/03 14:01:23;;;;;;;2.93;2.63;;;20.90;99.90;;;;;;5082892;22;20291;-90
2021/10/03 14:03:58;;;;;;;4.83;3.03;;;;;;;;;;5089897;22;20486;-90
2021/10/03 14:08:53;;;;;;;4.30;3.20;;;20.70;99.90;;;;;;5095794;22;20489;-89
2021/10/03 14:11:23;;;;;;;3.60;2.73;;;20.70;99.90;;;;;;5083748;22;20238;-91
2021/10/03 14:13:50;;;;;;;3.20;2.90;;;;;;;;;;5075508;28;20411;-90
2021/10/03 14:16:19;;;;;;;2.70;2.30;;;20.70;99.90;;;;;;5082603;22;20494;-90
2021/10/03 14:19:01;;;;;;;4.53;3.40;;;;;;;;;;5086825;22;20479;-89
2021/10/03 14:21:46;;;;;;;4.73;3.13;;;20.70;99.90;;;;;;5086543;22;20478;-89
2021/10/03 14:27:13;;;;;;;3.37;2.23;;;;;;;;;;5070454;22;20497;-92
2021/10/03 14:29:45;;;;;;;10.60;4.17;;;;;;;;;;5108212;22;20442;-91
2021/10/03 14:32:12;;;;;;;2.40;2.20;;;;;;;;;;5079324;28;20439;-90